Time;durP1;ratioP1;P1;durP2;ratioP2;P2;SDS_P1;SDS_P2;PMS_P1;PMS_P2;Temp;Humidity;BMP_temperature;BMP_pressure;BME280_temperature;BME280_humidity;BME280_pressure;Samples;Min_cycle;Max_cycle;Signal;HPM_P1;HPM_P2
2023/03/07 00:00:43;;;;;;;19.40;8.18;;;4.50;99.90;;;;;;5032393;28;20033;-82
2023/03/07 00:03:11;;;;;;;18.35;7.78;;;4.30;99.90;;;;;;5032332;28;20037;-82
2023/03/07 00:05:38;;;;;;;14.07;6.55;;;3.70;99.90;;;;;;5032611;28;20033;-82
2023/03/07 00:08:04;;;;;;;14.85;6.45;;;3.70;99.90;;;;;;5032388;28;20037;-82
2023/03/07 00:10:29;;;;;;;14.52;5.63;;;3.80;99.90;;;;;;5032679;28;20056;-83
2023/03/07 00:12:55;;;;;;;12.60;5.20;;;3.90;99.90;;;;;;5015708;28;20107;-82
2023/03/07 00:15:21;;;;;;;11.10;4.20;;;3.80;99.90;;;;;;5032505;28;20049;-83
2023/03/07 00:17:47;;;;;;;9.02;3.55;;;3.80;99.90;;;;;;5032500;28;20386;-83
2023/03/07 00:20:14;;;;;;;6.43;3.13;;;4.80;99.90;;;;;;5032540;28;20056;-82
2023/03/07 00:22:40;;;;;;;6.13;3.05;;;4.60;99.90;;;;;;5046554;28;20041;-82
2023/03/07 00:25:06;;;;;;;5.95;2.35;;;4.40;99.90;;;;;;5032167;28;20416;-82
2023/03/07 00:27:33;;;;;;;5.20;2.22;;;3.70;99.90;;;;;;5032016;28;20040;-82
2023/03/07 00:29:58;;;;;;;;;;;3.90;99.90;;;;;;5016093;28;20478;-82
2023/03/07 00:32:25;;;;;;;8.88;2.67;;;3.70;99.90;;;;;;5015706;28;19928;-82
2023/03/07 00:34:51;;;;;;;7.18;2.67;;;3.70;99.90;;;;;;5012646;28;20037;-82
2023/03/07 00:37:17;;;;;;;8.63;2.97;;;4.00;99.90;;;;;;5032089;28;20044;-81
2023/03/07 00:39:43;;;;;;;9.65;3.03;;;3.60;99.90;;;;;;5032045;28;20045;-82
2023/03/07 00:42:08;;;;;;;6.63;3.03;;;4.70;99.90;;;;;;5032235;28;20040;-81
2023/03/07 00:44:34;;;;;;;8.77;3.97;;;3.60;99.90;;;;;;5015007;28;20038;-82
2023/03/07 00:47:01;;;;;;;7.70;2.95;;;3.60;99.90;;;;;;5013219;28;20048;-82
2023/03/07 00:49:27;;;;;;;;;;;3.60;99.90;;;;;;4997040;28;20058;-82
2023/03/07 00:51:52;;;;;;;6.88;2.25;;;3.60;99.90;;;;;;5015000;28;19920;-81
2023/03/07 00:54:18;;;;;;;8.77;2.85;;;4.10;99.90;;;;;;5031089;28;20045;-81
2023/03/07 00:56:44;;;;;;;8.73;2.25;;;3.60;99.90;;;;;;5015173;28;20048;-81
2023/03/07 00:59:10;;;;;;;6.90;2.13;;;3.60;99.90;;;;;;5014875;28;20045;-82
2023/03/07 01:01:36;;;;;;;5.70;2.28;;;3.80;99.90;;;;;;5032297;28;20440;-81
2023/03/07 01:04:01;;;;;;;12.40;2.80;;;3.70;99.90;;;;;;5015929;28;20490;-81
2023/03/07 01:06:30;;;;;;;7.20;1.77;;;3.70;99.90;;;;;;5016021;28;20065;-82
2023/03/07 01:09:01;;;;;;;6.22;1.70;;;3.70;99.90;;;;;;5032288;28;20053;-82
2023/03/07 01:11:28;;;;;;;4.88;1.63;;;3.80;99.90;;;;;;5031915;28;20051;-81
2023/03/07 01:13:58;;;;;;;6.25;1.40;;;3.80;99.90;;;;;;5032078;28;20048;-81
2023/03/07 01:16:26;;;;;;;6.32;1.40;;;3.80;99.90;;;;;;5031050;28;20048;-82
2023/03/07 01:18:54;;;;;;;6.50;1.55;;;3.80;99.90;;;;;;5031501;28;20120;-82
2023/03/07 01:21:22;;;;;;;9.70;1.50;;;3.80;99.90;;;;;;5014908;28;20056;-82
2023/03/07 01:23:48;;;;;;;10.48;1.35;;;3.90;99.90;;;;;;5030176;28;20068;-82
2023/03/07 01:26:17;;;;;;;12.35;1.73;;;3.90;99.90;;;;;;5014070;28;20434;-82
2023/03/07 01:28:42;;;;;;;7.57;1.55;;;4.80;99.90;;;;;;5014091;28;20037;-82
2023/03/07 01:31:08;;;;;;;12.27;1.63;;;3.90;99.90;;;;;;5014366;28;20037;-82
2023/03/07 01:33:34;;;;;;;10.85;1.50;;;3.90;99.90;;;;;;5031307;28;20286;-82
2023/03/07 01:35:59;;;;;;;5.87;1.80;;;3.90;99.90;;;;;;5030535;28;20069;-82
2023/03/07 01:38:27;;;;;;;7.00;1.23;;;3.90;99.90;;;;;;5030979;28;20284;-82
2023/03/07 01:40:52;;;;;;;7.53;1.50;;;3.90;99.90;;;;;;5030502;28;20383;-82
2023/03/07 01:43:27;;;;;;;5.85;1.58;;;4.10;99.90;;;;;;5014034;28;20103;-82
2023/03/07 01:46:18;;;;;;;6.35;1.35;;;4.00;99.90;;;;;;5013046;28;20037;-82
2023/03/07 01:48:52;;;;;;;9.65;1.48;;;4.00;99.90;;;;;;5014042;28;20045;-83
2023/03/07 01:51:19;;;;;;;7.25;1.20;;;4.80;99.90;;;;;;5030464;28;20397;-82
2023/03/07 01:53:45;;;;;;;;;;;4.40;99.90;;;;;;5014657;28;20081;-82
2023/03/07 01:56:11;;;;;;;6.97;0.90;;;3.90;99.90;;;;;;5013689;28;19980;-82
2023/03/07 01:58:38;;;;;;;8.75;1.33;;;3.90;99.90;;;;;;5029648;28;20497;-82
2023/03/07 02:01:06;;;;;;;;;;;3.80;99.90;;;;;;5030594;28;20077;-82
2023/03/07 02:03:41;;;;;;;3.88;1.10;;;4.10;99.90;;;;;;5030568;28;20359;-82
2023/03/07 02:06:09;;;;;;;6.57;1.23;;;3.80;99.90;;;;;;5028579;28;20037;-82
2023/03/07 02:08:36;;;;;;;8.82;1.23;;;3.70;99.90;;;;;;5030225;28;20094;-82
2023/03/07 02:11:02;;;;;;;10.77;2.05;;;4.70;99.90;;;;;;5029803;28;20496;-82
2023/03/07 02:13:28;;;;;;;9.20;1.20;;;3.50;99.90;;;;;;5030236;28;20060;-82
2023/03/07 02:15:54;;;;;;;5.95;1.38;;;3.40;99.90;;;;;;5030438;28;20033;-82
2023/03/07 02:18:25;;;;;;;8.98;1.50;;;3.60;99.90;;;;;;5030628;28;20034;-83
2023/03/07 02:21:28;;;;;;;4.88;1.17;;;3.40;99.90;;;;;;5030538;28;20116;-82
2023/03/07 02:24:18;;;;;;;13.27;2.00;;;3.30;99.90;;;;;;5028478;28;20405;-82
2023/03/07 02:26:45;;;;;;;11.57;1.55;;;3.30;99.90;;;;;;5029862;28;20040;-82
2023/03/07 02:29:12;;;;;;;16.30;2.05;;;3.30;99.90;;;;;;5029333;28;20053;-82
2023/03/07 02:31:38;;;;;;;6.72;1.77;;;3.30;99.90;;;;;;5030831;28;20470;-82
2023/03/07 02:34:16;;;;;;;6.20;1.17;;;3.20;99.90;;;;;;5030408;28;20091;-82
2023/03/07 02:36:42;;;;;;;6.20;1.13;;;3.20;99.90;;;;;;5014378;28;20037;-82
2023/03/07 02:39:08;;;;;;;6.45;1.25;;;3.20;99.90;;;;;;5013144;28;20128;-82
2023/03/07 02:41:36;;;;;;;8.70;1.42;;;3.30;99.90;;;;;;5012969;28;20048;-82
2023/03/07 02:44:02;;;;;;;4.45;1.10;;;3.30;99.90;;;;;;5029685;28;20053;-82
2023/03/07 02:46:28;;;;;;;5.38;1.13;;;3.40;99.90;;;;;;5030235;28;20486;-82
2023/03/07 02:48:53;;;;;;;7.03;1.33;;;3.40;99.90;;;;;;5030237;28;20398;-82
2023/03/07 02:51:19;;;;;;;10.25;1.40;;;3.40;99.90;;;;;;4997146;28;20064;-82
2023/03/07 02:53:45;;;;;;;4.75;1.00;;;3.40;99.90;;;;;;5029971;28;20048;-82
2023/03/07 02:56:11;;;;;;;9.57;1.10;;;3.60;99.90;;;;;;5013668;28;20045;-82
2023/03/07 02:58:36;;;;;;;8.82;1.13;;;3.30;99.90;;;;;;5029922;28;20041;-82
2023/03/07 03:01:02;;;;;;;6.53;1.67;;;3.30;99.90;;;;;;5029714;28;20061;-82
2023/03/07 03:03:28;;;;;;;4.38;0.90;;;3.30;99.90;;;;;;5030205;28;20308;-81
2023/03/07 03:05:54;;;;;;;7.50;1.35;;;4.00;99.90;;;;;;5029994;28;20079;-82
2023/03/07 03:08:19;;;;;;;6.77;1.13;;;4.20;99.90;;;;;;5012992;28;20046;-82
2023/03/07 03:10:45;;;;;;;5.43;1.40;;;3.20;99.90;;;;;;5013604;28;20338;-82
2023/03/07 03:13:11;;;;;;;5.50;0.80;;;3.10;99.90;;;;;;5029828;28;20312;-81
2023/03/07 03:15:36;;;;;;;10.05;1.50;;;3.50;99.90;;;;;;5028985;28;20815;-82
2023/03/07 03:18:02;;;;;;;4.72;1.70;;;4.00;99.90;;;;;;5029157;28;20041;-81
2023/03/07 03:20:28;;;;;;;4.40;1.07;;;3.00;99.90;;;;;;5028997;28;20049;-81
2023/03/07 03:22:53;;;;;;;7.80;1.40;;;3.00;99.90;;;;;;5029142;28;20800;-82
2023/03/07 03:25:22;;;;;;;7.03;0.97;;;3.40;99.90;;;;;;5012671;28;20308;-82
2023/03/07 03:27:48;;;;;;;5.25;0.90;;;3.00;99.90;;;;;;5013721;28;20405;-82
2023/03/07 03:30:15;;;;;;;5.05;0.93;;;3.00;99.90;;;;;;5027938;28;20171;-82
2023/03/07 03:32:42;;;;;;;5.95;1.00;;;2.90;99.90;;;;;;5012886;28;20124;-82
2023/03/07 03:35:09;;;;;;;7.28;1.08;;;3.00;99.90;;;;;;5028469;28;20034;-82
2023/03/07 03:37:34;;;;;;;5.18;1.10;;;2.90;99.90;;;;;;5028934;28;20175;-83
2023/03/07 03:40:00;;;;;;;5.03;1.10;;;2.90;99.90;;;;;;5028657;28;20493;-82
2023/03/07 03:42:26;;;;;;;6.43;1.17;;;2.90;99.90;;;;;;5028743;28;20033;-82
2023/03/07 03:44:52;;;;;;;7.65;1.17;;;2.80;99.90;;;;;;5028929;28;20120;-82
2023/03/07 03:47:18;;;;;;;5.13;1.37;;;4.00;99.90;;;;;;5028451;28;20180;-82
2023/03/07 03:49:43;;;;;;;7.73;1.50;;;2.90;99.90;;;;;;5028854;28;20296;-82
2023/03/07 03:52:09;;;;;;;4.22;1.13;;;3.80;99.90;;;;;;5011891;28;20284;-82
2023/03/07 03:54:35;;;;;;;6.15;0.90;;;2.80;99.90;;;;;;5012184;28;20053;-83
2023/03/07 03:57:01;;;;;;;7.75;0.93;;;2.90;99.90;;;;;;5012376;28;20046;-82
2023/03/07 03:59:26;;;;;;;5.93;1.52;;;2.90;99.90;;;;;;5061397;28;20045;-82
2023/03/07 04:01:53;;;;;;;7.10;0.95;;;2.80;99.90;;;;;;5012052;28;20481;-83
2023/03/07 04:04:20;;;;;;;6.32;1.00;;;3.50;99.90;;;;;;5011915;28;20045;-82
2023/03/07 04:06:47;;;;;;;6.63;1.45;;;2.90;99.90;;;;;;4996065;28;20041;-83
2023/03/07 04:09:12;;;;;;;;;;;2.80;99.90;;;;;;5012244;28;20100;-82
2023/03/07 04:11:38;;;;;;;3.47;0.90;;;2.80;99.90;;;;;;5061592;28;19921;-82
2023/03/07 04:14:04;;;;;;;8.67;1.40;;;2.80;99.90;;;;;;5011810;28;20367;-82
2023/03/07 04:16:29;;;;;;;6.15;1.23;;;2.80;99.90;;;;;;5000648;28;20038;-82
2023/03/07 04:18:56;;;;;;;3.80;1.50;;;3.00;99.90;;;;;;5028876;28;20370;-82
2023/03/07 04:21:22;;;;;;;5.38;1.88;;;2.70;99.90;;;;;;5029638;28;20040;-82
2023/03/07 04:23:54;;;;;;;7.68;0.93;;;2.80;99.90;;;;;;5032406;28;20054;-82
2023/03/07 04:26:20;;;;;;;9.45;1.40;;;2.70;99.90;;;;;;5013811;28;20048;-82
2023/03/07 04:28:48;;;;;;;6.00;1.00;;;2.70;99.90;;;;;;5032521;28;20075;-82
2023/03/07 04:31:22;;;;;;;5.03;1.00;;;2.70;99.90;;;;;;5031799;28;20034;-82
2023/03/07 04:33:49;;;;;;;8.23;1.00;;;2.70;99.90;;;;;;5063634;28;20033;-82
2023/03/07 04:36:15;;;;;;;8.07;1.30;;;2.70;99.90;;;;;;5031686;28;20034;-83
2023/03/07 04:38:41;;;;;;;7.80;1.40;;;3.70;99.90;;;;;;5032224;28;20072;-83
2023/03/07 04:41:11;;;;;;;6.63;1.00;;;2.70;99.90;;;;;;5030646;28;20077;-82
2023/03/07 04:43:37;;;;;;;5.80;0.88;;;2.90;99.90;;;;;;5026294;28;20113;-82
2023/03/07 04:46:02;;;;;;;6.63;1.00;;;2.80;99.90;;;;;;4998567;28;20454;-82
2023/03/07 04:48:28;;;;;;;4.22;0.95;;;2.80;99.90;;;;;;5030979;28;20303;-82
2023/03/07 04:50:54;;;;;;;3.95;0.88;;;2.80;99.90;;;;;;5015040;28;20361;-83
2023/03/07 04:53:20;;;;;;;3.90;1.05;;;3.60;99.90;;;;;;5030929;28;20081;-82
2023/03/07 04:55:46;;;;;;;5.35;1.55;;;2.80;99.90;;;;;;5031458;28;20049;-82
2023/03/07 04:58:12;;;;;;;5.70;1.40;;;2.80;99.90;;;;;;4998440;28;20508;-83
2023/03/07 05:00:40;;;;;;;3.05;0.85;;;3.00;99.90;;;;;;5015137;28;20800;-82
2023/03/07 05:03:07;;;;;;;9.07;1.05;;;2.70;99.90;;;;;;4998410;28;20037;-82
2023/03/07 05:05:33;;;;;;;5.60;1.20;;;2.90;99.90;;;;;;5013956;28;20049;-82
2023/03/07 05:07:58;;;;;;;12.13;1.23;;;2.70;99.90;;;;;;5014646;28;20120;-82
2023/03/07 05:10:24;;;;;;;3.47;1.05;;;2.70;99.90;;;;;;5030827;28;20040;-83
2023/03/07 05:12:50;;;;;;;4.43;0.80;;;4.00;99.90;;;;;;5031222;28;20045;-83
2023/03/07 05:15:15;;;;;;;9.82;1.40;;;3.20;99.90;;;;;;5014351;28;20547;-82
2023/03/07 05:17:41;;;;;;;6.68;1.35;;;2.80;99.90;;;;;;5032143;28;20347;-82
2023/03/07 05:20:09;;;;;;;7.43;0.80;;;3.10;99.90;;;;;;5015425;28;20052;-82
2023/03/07 05:22:35;;;;;;;8.30;1.30;;;2.90;99.90;;;;;;5031610;28;20389;-82
2023/03/07 05:25:01;;;;;;;5.78;1.70;;;2.90;99.90;;;;;;5031660;28;20042;-83
2023/03/07 05:27:27;;;;;;;4.65;1.23;;;3.00;99.90;;;;;;5014672;28;20381;-80
2023/03/07 05:29:53;;;;;;;8.55;1.20;;;4.00;99.90;;;;;;5031194;28;20077;-80
2023/03/07 05:32:18;;;;;;;8.70;1.53;;;3.40;99.90;;;;;;5030685;28;20042;-80
2023/03/07 05:34:45;;;;;;;10.80;1.45;;;2.90;99.90;;;;;;5044910;28;20046;-80
2023/03/07 05:37:11;;;;;;;4.72;0.85;;;3.00;99.90;;;;;;4998420;28;20109;-80
2023/03/07 05:39:37;;;;;;;3.85;1.38;;;2.90;99.90;;;;;;5029472;28;20117;-80
2023/03/07 05:42:03;;;;;;;9.13;1.10;;;3.00;99.90;;;;;;5030909;28;20128;-80
2023/03/07 05:44:29;;;;;;;5.20;1.00;;;3.00;99.90;;;;;;5030140;28;20052;-81
2023/03/07 05:46:54;;;;;;;6.25;0.85;;;3.10;99.90;;;;;;5013861;28;20056;-80
2023/03/07 05:49:20;;;;;;;5.23;0.80;;;3.40;99.90;;;;;;5013572;28;20037;-87
2023/03/07 05:51:46;;;;;;;5.72;0.95;;;3.10;99.90;;;;;;5032815;28;20280;-84
2023/03/07 05:54:12;;;;;;;6.95;1.15;;;3.20;99.90;;;;;;5031788;28;20045;-86
2023/03/07 05:56:37;;;;;;;5.38;1.13;;;3.00;99.90;;;;;;5015454;28;20409;-86
2023/03/07 05:59:06;;;;;;;6.63;1.27;;;4.20;99.90;;;;;;5033112;28;20079;-86
2023/03/07 06:01:32;;;;;;;7.80;1.13;;;3.50;99.90;;;;;;5032119;28;20295;-85
2023/03/07 06:03:58;;;;;;;6.05;1.00;;;3.00;99.90;;;;;;5015888;28;20128;-86
2023/03/07 06:06:24;;;;;;;5.55;1.00;;;2.90;99.90;;;;;;5031535;28;20084;-86
2023/03/07 06:08:49;;;;;;;5.30;0.80;;;2.90;99.90;;;;;;5016344;28;20503;-86
2023/03/07 06:11:15;;;;;;;6.55;1.10;;;4.40;99.90;;;;;;5032253;28;20399;-86
2023/03/07 06:13:41;;;;;;;8.20;1.50;;;4.10;99.90;;;;;;5015150;28;20055;-86
2023/03/07 06:16:07;;;;;;;7.03;1.42;;;2.90;99.90;;;;;;5016179;28;20053;-86
2023/03/07 06:18:32;;;;;;;3.30;0.77;;;2.90;99.90;;;;;;5033167;28;20135;-86
2023/03/07 06:21:00;;;;;;;7.07;1.17;;;2.90;99.90;;;;;;5000429;28;20048;-84
2023/03/07 06:23:28;;;;;;;7.50;1.45;;;2.90;99.90;;;;;;5017438;28;20500;-85
2023/03/07 06:25:54;;;;;;;4.60;1.02;;;3.00;99.90;;;;;;5017167;28;20041;-84
2023/03/07 06:28:19;;;;;;;4.85;0.90;;;2.90;99.90;;;;;;5032643;28;20490;-85
2023/03/07 06:30:45;;;;;;;5.25;0.82;;;3.10;99.90;;;;;;5000890;28;20092;-85
2023/03/07 06:33:11;;;;;;;2.47;0.80;;;2.90;99.90;;;;;;5016002;28;20387;-85
2023/03/07 06:35:42;;;;;;;4.80;1.27;;;3.70;99.90;;;;;;5001602;28;20038;-85
2023/03/07 06:38:08;;;;;;;5.32;0.85;;;3.30;99.90;;;;;;5032105;28;20053;-85
2023/03/07 06:40:35;;;;;;;5.15;0.90;;;2.80;99.90;;;;;;5015089;28;20063;-85
2023/03/07 06:43:00;;;;;;;3.78;0.77;;;3.10;99.90;;;;;;5032318;28;20041;-85
2023/03/07 06:45:26;;;;;;;1.23;0.60;;;2.80;99.90;;;;;;5015359;28;20120;-85
2023/03/07 06:47:52;;;;;;;3.72;1.00;;;2.80;99.90;;;;;;5031054;28;20072;-85
2023/03/07 06:50:18;;;;;;;9.30;1.02;;;2.80;99.90;;;;;;5007466;28;20045;-86
2023/03/07 06:52:44;;;;;;;6.35;1.20;;;2.80;99.90;;;;;;5015728;28;20069;-85
2023/03/07 06:55:10;;;;;;;3.78;0.82;;;2.90;99.90;;;;;;5016752;28;20465;-86
2023/03/07 06:57:36;;;;;;;4.25;0.95;;;2.90;99.90;;;;;;5032493;28;20056;-86
2023/03/07 07:00:04;;;;;;;4.85;0.75;;;2.90;99.90;;;;;;5031822;28;20049;-86
2023/03/07 07:02:30;;;;;;;5.10;0.80;;;3.00;99.90;;;;;;5031455;28;20117;-86
2023/03/07 07:04:57;;;;;;;3.47;0.85;;;3.80;99.90;;;;;;5031800;28;20389;-86
2023/03/07 07:07:23;;;;;;;;;;;2.90;99.90;;;;;;5015917;28;20660;-86
2023/03/07 07:09:49;;;;;;;4.25;0.65;;;2.90;99.90;;;;;;5016877;28;20007;-85
2023/03/07 07:12:14;;;;;;;4.10;0.70;;;3.20;99.90;;;;;;5031819;28;20061;-85
2023/03/07 07:14:40;;;;;;;2.17;0.63;;;3.00;99.90;;;;;;5031592;28;20040;-85
2023/03/07 07:17:06;;;;;;;2.63;0.60;;;3.00;99.90;;;;;;4998121;28;20292;-84
2023/03/07 07:19:32;;;;;;;2.22;0.77;;;3.10;99.90;;;;;;5032631;28;20397;-84
2023/03/07 07:21:57;;;;;;;4.65;1.10;;;3.00;99.90;;;;;;5015911;28;20045;-85
2023/03/07 07:24:23;;;;;;;2.72;0.70;;;3.00;99.90;;;;;;5031607;28;20041;-85
2023/03/07 07:26:49;;;;;;;3.58;1.05;;;3.00;99.90;;;;;;5033285;28;20399;-84
2023/03/07 07:29:15;;;;;;;5.63;0.70;;;3.00;99.90;;;;;;4998348;28;20056;-85
2023/03/07 07:31:40;;;;;;;0.82;0.40;;;3.00;99.90;;;;;;5031288;28;20038;-85
2023/03/07 07:34:06;;;;;;;2.75;1.10;;;3.30;99.90;;;;;;5031459;28;20555;-86
2023/03/07 07:36:33;;;;;;;3.13;1.00;;;3.00;99.90;;;;;;5029814;28;20614;-85
2023/03/07 07:39:03;;;;;;;3.85;1.00;;;3.10;99.90;;;;;;5032944;28;20048;-86
2023/03/07 07:41:28;;;;;;;1.23;0.70;;;3.60;99.90;;;;;;5031450;28;20537;-85
2023/03/07 07:43:54;;;;;;;5.13;0.80;;;3.00;99.90;;;;;;5015708;28;20114;-85
2023/03/07 07:46:19;;;;;;;3.67;1.10;;;3.10;99.90;;;;;;5032824;28;20291;-85
2023/03/07 07:48:46;;;;;;;5.43;0.90;;;3.10;99.90;;;;;;5014848;28;20044;-86
2023/03/07 07:51:12;;;;;;;7.60;0.90;;;3.10;99.90;;;;;;5015060;28;20314;-85
2023/03/07 07:53:38;;;;;;;3.47;0.75;;;4.00;99.90;;;;;;5014604;28;20124;-85
2023/03/07 07:56:04;;;;;;;5.10;0.90;;;3.10;99.90;;;;;;5032003;28;20100;-85
2023/03/07 07:58:29;;;;;;;4.95;0.93;;;3.10;99.90;;;;;;5033405;28;20063;-85
2023/03/07 08:00:55;;;;;;;4.53;0.90;;;3.20;99.90;;;;;;5018253;28;20115;-85
2023/03/07 08:03:21;;;;;;;4.30;1.00;;;3.20;99.90;;;;;;5019751;28;20083;-86
2023/03/07 08:05:47;;;;;;;3.87;0.77;;;4.10;99.90;;;;;;5020210;28;20112;-86
2023/03/07 08:08:17;;;;;;;3.25;1.13;;;3.30;99.90;;;;;;5035419;28;20277;-86
2023/03/07 08:10:45;;;;;;;2.85;0.80;;;4.10;99.90;;;;;;5034933;28;20057;-86
2023/03/07 08:13:16;;;;;;;4.10;0.95;;;4.40;99.90;;;;;;5035453;28;20057;-86
2023/03/07 08:15:42;;;;;;;3.05;0.75;;;3.60;99.90;;;;;;5018352;28;20083;-85
2023/03/07 08:18:09;;;;;;;3.70;0.80;;;4.10;99.90;;;;;;5035160;28;20076;-86
2023/03/07 08:20:36;;;;;;;3.15;0.75;;;3.50;99.90;;;;;;5019515;28;20490;-86
2023/03/07 08:23:03;;;;;;;8.07;0.90;;;3.60;99.90;;;;;;5035010;28;20049;-86
2023/03/07 08:25:28;;;;;;;4.97;0.70;;;3.60;99.90;;;;;;5035016;28;20045;-85
2023/03/07 08:27:55;;;;;;;3.47;0.85;;;3.80;99.90;;;;;;5017741;28;20397;-86
2023/03/07 08:30:26;;;;;;;6.93;0.88;;;3.70;99.90;;;;;;5033476;28;20123;-86
2023/03/07 08:32:53;;;;;;;3.88;0.90;;;3.80;99.90;;;;;;5031785;28;20805;-86
2023/03/07 08:35:19;;;;;;;4.93;1.05;;;3.80;99.90;;;;;;5034980;28;20535;-86
2023/03/07 08:37:47;;;;;;;6.05;0.98;;;4.00;99.90;;;;;;5017665;28;20033;-86
2023/03/07 08:40:15;;;;;;;5.10;1.05;;;3.80;99.90;;;;;;5017977;28;20041;-86
2023/03/07 08:42:41;;;;;;;2.13;0.80;;;3.70;99.90;;;;;;5017234;28;20124;-86
2023/03/07 08:45:08;;;;;;;3.05;1.00;;;3.60;99.90;;;;;;5034698;28;20079;-85
2023/03/07 08:47:34;;;;;;;4.15;0.93;;;3.50;99.90;;;;;;5033682;28;20041;-85
2023/03/07 08:49:59;;;;;;;3.42;0.80;;;4.60;99.90;;;;;;5017599;28;20120;-86
2023/03/07 08:52:25;;;;;;;6.45;0.80;;;3.50;99.90;;;;;;5017579;28;20569;-85
2023/03/07 08:54:51;;;;;;;3.53;0.77;;;3.40;99.90;;;;;;5017006;28;20054;-85
2023/03/07 08:57:16;;;;;;;3.05;0.68;;;3.40;99.90;;;;;;5000298;28;20288;-85
2023/03/07 08:59:42;;;;;;;5.13;0.60;;;3.70;99.90;;;;;;5016587;28;20052;-86
2023/03/07 09:02:10;;;;;;;4.95;0.90;;;3.30;99.90;;;;;;5033927;28;20045;-86
2023/03/07 09:04:36;;;;;;;2.47;0.80;;;3.40;99.90;;;;;;5033263;28;20040;-86
2023/03/07 09:07:02;;;;;;;3.40;1.08;;;3.30;99.90;;;;;;5033513;28;20401;-86
2023/03/07 09:09:28;;;;;;;1.95;0.60;;;3.30;99.90;;;;;;5016690;28;20091;-86
2023/03/07 09:11:54;;;;;;;;;;;3.70;99.90;;;;;;5034044;28;20037;-86
2023/03/07 09:14:20;;;;;;;8.05;0.90;;;3.80;99.90;;;;;;5033723;28;20005;-86
2023/03/07 09:16:45;;;;;;;8.48;1.00;;;3.30;99.90;;;;;;5017505;28;20836;-86
2023/03/07 09:19:11;;;;;;;2.88;0.80;;;3.30;99.90;;;;;;5018591;28;20121;-86
2023/03/07 09:21:37;;;;;;;5.47;0.88;;;3.30;99.90;;;;;;5021024;28;20124;-85
2023/03/07 09:24:03;;;;;;;2.28;0.60;;;3.30;99.90;;;;;;5019947;28;20045;-86
2023/03/07 09:26:29;;;;;;;3.85;0.95;;;3.40;99.90;;;;;;5034904;28;20041;-86
2023/03/07 09:28:54;;;;;;;3.60;0.70;;;4.00;99.90;;;;;;5033225;28;20660;-85
2023/03/07 09:31:21;;;;;;;3.70;0.80;;;3.40;99.90;;;;;;5018135;28;20296;-86
2023/03/07 09:33:46;;;;;;;7.47;1.00;;;3.40;99.90;;;;;;5033409;28;20652;-86
2023/03/07 09:36:13;;;;;;;3.30;0.68;;;3.50;99.90;;;;;;5033679;28;20048;-85
2023/03/07 09:38:39;;;;;;;4.25;0.70;;;3.50;99.90;;;;;;5017253;28;20037;-85
2023/03/07 09:41:21;;;;;;;4.45;1.00;;;3.60;99.90;;;;;;4999946;28;20512;-85
2023/03/07 09:43:56;;;;;;;3.75;0.70;;;3.60;99.90;;;;;;5015194;28;20045;-86
2023/03/07 09:46:43;;;;;;;5.25;1.10;;;3.60;99.90;;;;;;5031303;28;20037;-86
2023/03/07 09:49:15;;;;;;;3.17;1.10;;;3.60;99.90;;;;;;5016477;28;20611;-86
2023/03/07 09:51:42;;;;;;;6.80;0.80;;;3.70;99.90;;;;;;5016311;28;20505;-86
2023/03/07 09:54:15;;;;;;;4.40;1.00;;;3.60;99.90;;;;;;5000471;28;20045;-85
2023/03/07 09:56:43;;;;;;;2.30;0.80;;;3.70;99.90;;;;;;5032079;28;20034;-85
2023/03/07 09:59:33;;;;;;;2.78;0.60;;;4.00;99.90;;;;;;5014199;28;20497;-85
2023/03/07 10:02:22;;;;;;;2.50;0.85;;;3.80;99.90;;;;;;5032782;28;20052;-85
2023/03/07 10:05:08;;;;;;;4.47;1.10;;;4.10;99.90;;;;;;5030608;28;20045;-86
2023/03/07 10:07:35;;;;;;;5.70;0.95;;;4.00;99.90;;;;;;5033228;28;20046;-85
2023/03/07 10:10:05;;;;;;;5.00;1.13;;;4.50;99.90;;;;;;5032248;28;20043;-86
2023/03/07 10:13:01;;;;;;;2.08;0.90;;;5.30;99.90;;;;;;5032580;28;20139;-86
2023/03/07 10:15:45;;;;;;;7.93;1.08;;;4.50;99.90;;;;;;5029151;28;20437;-85
2023/03/07 10:18:16;;;;;;;4.85;0.85;;;4.80;99.90;;;;;;5026481;28;20037;-86
2023/03/07 10:20:54;;;;;;;4.22;1.08;;;5.10;99.90;;;;;;5031930;28;20041;-85
2023/03/07 10:23:47;;;;;;;4.55;0.75;;;5.30;99.90;;;;;;5028712;28;20053;-85
2023/03/07 10:26:16;;;;;;;5.82;1.05;;;5.50;99.90;;;;;;5031277;28;20530;-85
2023/03/07 10:28:45;;;;;;;6.05;1.20;;;5.80;99.90;;;;;;5031769;28;20041;-86
2023/03/07 10:31:15;;;;;;;5.28;1.02;;;5.60;99.90;;;;;;5030241;28;20060;-85
2023/03/07 10:33:45;;;;;;;3.47;0.90;;;5.60;99.90;;;;;;5031864;28;20041;-85
2023/03/07 10:36:37;;;;;;;4.15;0.73;;;5.50;99.90;;;;;;5016768;28;20049;-86
2023/03/07 10:39:15;;;;;;;4.88;1.00;;;5.50;99.90;;;;;;5034398;28;20045;-85
2023/03/07 10:41:41;;;;;;;9.52;1.00;;;5.60;99.90;;;;;;5033414;28;20041;-85
2023/03/07 10:44:14;;;;;;;2.95;0.90;;;4.70;99.90;;;;;;5016603;28;20060;-86
2023/03/07 10:46:40;;;;;;;6.90;1.00;;;5.70;99.90;;;;;;5032883;28;20076;-85
2023/03/07 10:49:14;;;;;;;7.03;1.45;;;5.90;99.90;;;;;;5016997;28;20044;-85
2023/03/07 10:51:46;;;;;;;4.32;1.17;;;6.10;99.90;;;;;;5031888;28;20042;-85
2023/03/07 10:54:19;;;;;;;2.35;0.88;;;6.20;99.90;;;;;;5014943;28;20084;-85
2023/03/07 10:57:30;;;;;;;3.88;0.80;;;6.20;99.90;;;;;;5010978;28;20115;-85
2023/03/07 11:00:15;;;;;;;6.22;1.15;;;6.30;99.90;;;;;;5011083;28;20045;-85
2023/03/07 11:02:45;;;;;;;3.97;0.77;;;6.60;99.90;;;;;;5026199;28;20037;-85
2023/03/07 11:05:23;;;;;;;4.30;0.80;;;6.80;99.90;;;;;;5032434;28;20046;-85
2023/03/07 11:07:48;;;;;;;7.07;0.93;;;6.90;99.90;;;;;;5031733;28;20044;-85
2023/03/07 11:10:38;;;;;;;3.90;1.08;;;7.00;99.90;;;;;;5031883;28;20045;-85
2023/03/07 11:13:17;;;;;;;2.25;0.75;;;7.40;99.90;;;;;;5063755;28;20046;-85
2023/03/07 11:15:45;;;;;;;7.93;0.93;;;7.60;99.90;;;;;;5061383;28;20037;-84
2023/03/07 11:18:35;;;;;;;8.00;0.88;;;7.50;99.90;;;;;;5015074;28;20049;-84
2023/03/07 11:21:02;;;;;;;7.40;1.10;;;7.70;99.90;;;;;;5031324;28;20498;-84
2023/03/07 11:23:30;;;;;;;5.60;0.82;;;7.80;99.90;;;;;;5031984;28;20052;-85
2023/03/07 11:26:12;;;;;;;5.15;1.23;;;8.00;99.90;;;;;;5032095;28;20096;-85
2023/03/07 11:28:39;;;;;;;4.80;0.90;;;8.00;99.90;;;;;;5027214;28;20489;-85
2023/03/07 11:31:27;;;;;;;6.05;1.70;;;8.20;99.90;;;;;;5034745;28;20140;-85
2023/03/07 11:34:00;;;;;;;5.20;1.40;;;8.60;99.90;;;;;;5033213;28;20076;-84
2023/03/07 11:36:31;;;;;;;4.70;0.85;;;9.30;99.90;;;;;;5018088;28;20127;-85
2023/03/07 11:39:12;;;;;;;5.93;0.88;;;9.70;99.90;;;;;;5034311;28;20041;-85
2023/03/07 11:41:53;;;;;;;5.38;0.70;;;9.50;99.90;;;;;;5034782;28;20138;-85
2023/03/07 11:44:34;;;;;;;5.18;0.60;;;7.90;99.90;;;;;;5016090;28;20038;-85
2023/03/07 11:47:09;;;;;;;6.75;0.80;;;6.60;99.90;;;;;;5033888;28;20095;-85
2023/03/07 11:49:57;;;;;;;7.95;1.45;;;5.90;99.90;;;;;;5033475;28;20036;-85
2023/03/07 11:52:53;;;;;;;6.32;0.77;;;5.60;99.90;;;;;;4978693;28;20503;-85
2023/03/07 11:55:46;;;;;;;3.53;0.60;;;5.20;99.90;;;;;;5016261;28;20139;-85
2023/03/07 11:58:42;;;;;;;5.32;0.80;;;5.10;99.90;;;;;;5032557;28;20047;-85
2023/03/07 12:01:22;;;;;;;3.83;0.73;;;5.20;99.90;;;;;;5017537;28;20029;-85
2023/03/07 12:04:03;;;;;;;6.80;0.85;;;5.90;99.90;;;;;;5033911;28;20700;-85
2023/03/07 12:07:07;;;;;;;2.88;1.08;;;7.40;99.90;;;;;;5015844;28;20121;-85
2023/03/07 12:09:38;;;;;;;7.30;0.70;;;8.60;99.90;;;;;;4991673;28;20056;-84
2023/03/07 12:12:31;;;;;;;4.47;0.70;;;9.90;99.90;;;;;;5033623;28;20049;-83
2023/03/07 12:15:16;;;;;;;7.43;0.80;;;10.70;99.90;;;;;;5014626;28;20049;-82
2023/03/07 12:17:57;;;;;;;6.95;1.13;;;11.50;99.90;;;;;;5016681;28;20438;-82
2023/03/07 12:21:01;;;;;;;4.55;0.75;;;11.50;99.90;;;;;;5032904;28;20041;-82
2023/03/07 12:23:57;;;;;;;2.97;0.52;;;11.80;99.90;;;;;;5010488;28;20127;-82
2023/03/07 12:26:35;;;;;;;7.65;0.90;;;11.60;99.90;;;;;;4986954;28;20091;-83
2023/03/07 12:29:12;;;;;;;2.15;0.50;;;11.90;99.90;;;;;;5014519;28;20044;-83
2023/03/07 12:31:42;;;;;;;5.72;0.75;;;12.70;99.90;;;;;;5033282;28;20424;-83
2023/03/07 12:34:19;;;;;;;5.03;0.57;;;12.40;99.90;;;;;;5032995;28;20092;-83
2023/03/07 12:36:50;;;;;;;3.35;0.77;;;12.40;99.90;;;;;;5029623;28;20056;-82
2023/03/07 12:39:37;;;;;;;8.70;0.77;;;12.40;99.90;;;;;;5033244;28;20549;-82
2023/03/07 12:42:41;;;;;;;4.85;0.90;;;12.40;99.90;;;;;;5032237;28;20056;-82
2023/03/07 12:45:07;;;;;;;2.40;0.50;;;11.40;99.90;;;;;;5003538;28;20460;-83
2023/03/07 12:47:58;;;;;;;6.97;0.80;;;10.40;99.90;;;;;;5033389;28;20045;-83
2023/03/07 12:50:55;;;;;;;3.55;0.60;;;9.50;99.90;;;;;;5014685;28;20310;-83
2023/03/07 12:53:27;;;;;;;5.55;0.73;;;9.20;99.90;;;;;;5033080;28;20122;-82
2023/03/07 12:56:09;;;;;;;3.75;0.63;;;8.90;99.90;;;;;;5017042;28;20049;-84
2023/03/07 12:58:47;;;;;;;4.75;0.47;;;9.80;99.90;;;;;;5033037;28;20037;-84
2023/03/07 13:01:18;;;;;;;3.42;0.77;;;9.70;99.90;;;;;;5016755;28;20051;-84
2023/03/07 13:03:58;;;;;;;4.30;0.60;;;9.10;99.90;;;;;;5016521;28;20029;-84
2023/03/07 13:06:25;;;;;;;3.08;0.50;;;8.90;99.90;;;;;;5016856;28;20500;-83
2023/03/07 13:08:53;;;;;;;;;;;8.70;99.90;;;;;;5016233;28;20045;-83
2023/03/07 13:11:32;;;;;;;3.08;0.65;;;8.50;99.90;;;;;;5033095;28;20019;-84